Terminal Aerodrome Forecast
Issued by NWS Albany, NY

Home | Current Version | Previous Version | Text Only | Print | Product List | Glossary On
Versions: 1 2 3 4 5 6 7 8 9 10 11 12 13 14 15 16 17 18 19 20 21 22 23 24 25
000
FTUS41 KALY 222322 AAB
TAFGFL
TAF AMD
KGFL 222322Z 2223/2318 36003KT P6SM SKC
     FM230400 00000KT 6SM BR FEW002
      TEMPO 2304/2308 1 1/2SM BR BKN002
     FM231200 VRB03KT P6SM FEW250
     FM231500 07006KT P6SM FEW050 SCT250=

USA.gov is the U.S. government's official web portal to all federal, state and local government web resources and services.